Time;durP1;ratioP1;P1;durP2;ratioP2;P2;SDS_P1;SDS_P2;PMS_P1;PMS_P2;Temp;Humidity;BMP_temperature;BMP_pressure;BME280_temperature;BME280_humidity;BME280_pressure;Samples;Min_cycle;Max_cycle;Signal;HPM_P1;HPM_P2
2022/04/03 00:01:59;;;;;;;19.25;16.52;;;2.20;99.90;;;;;;6186997;23;20168;-87
2022/04/03 00:04:26;;;;;;;19.52;17.45;;;2.20;99.90;;;;;;6187617;23;20486;-87
2022/04/03 00:06:54;;;;;;;22.48;17.40;;;2.20;99.90;;;;;;6186322;23;20194;-87
2022/04/03 00:09:23;;;;;;;21.33;15.93;;;2.20;99.90;;;;;;6186732;23;20253;-87
2022/04/03 00:11:50;;;;;;;18.25;15.65;;;2.20;99.90;;;;;;6186346;23;20183;-87
2022/04/03 00:14:17;;;;;;;18.55;16.52;;;2.20;99.90;;;;;;6187572;23;20535;-86
2022/04/03 00:16:44;;;;;;;17.45;15.60;;;2.20;99.90;;;;;;6186311;23;20174;-86
2022/04/03 00:19:10;;;;;;;17.88;15.80;;;2.20;99.90;;;;;;6186874;23;20519;-86
2022/04/03 00:21:37;;;;;;;20.63;15.40;;;2.10;99.90;;;;;;6193965;23;20181;-87
2022/04/03 00:24:04;;;;;;;20.02;17.10;;;2.10;99.90;;;;;;6202480;23;20183;-86
2022/04/03 00:26:33;;;;;;;20.92;18.38;;;2.10;99.90;;;;;;6203752;23;20179;-87
2022/04/03 00:28:59;;;;;;;19.02;17.02;;;2.10;99.90;;;;;;6197555;23;20240;-88
2022/04/03 00:31:26;;;;;;;25.63;17.95;;;2.10;99.90;;;;;;6203578;23;20239;-86
2022/04/03 00:33:53;;;;;;;19.88;17.58;;;2.10;99.90;;;;;;6186322;23;20174;-86
2022/04/03 00:36:20;;;;;;;26.17;22.77;;;2.10;99.90;;;;;;6186846;23;20173;-86
2022/04/03 00:38:46;;;;;;;20.52;18.30;;;2.10;99.90;;;;;;6185766;23;20190;-86
2022/04/03 00:41:14;;;;;;;20.42;17.88;;;2.10;99.90;;;;;;6199514;23;20199;-86
2022/04/03 00:43:44;;;;;;;23.23;19.45;;;2.10;99.90;;;;;;6186361;23;20516;-87
2022/04/03 00:46:13;;;;;;;21.33;18.58;;;2.10;99.90;;;;;;6192633;23;20206;-87
2022/04/03 00:48:41;;;;;;;23.65;19.80;;;2.10;99.90;;;;;;6187265;23;20190;-87
2022/04/03 00:51:08;;;;;;;21.60;18.63;;;2.10;99.90;;;;;;6186343;23;20506;-86
2022/04/03 00:53:36;;;;;;;21.60;19.30;;;2.10;99.90;;;;;;6186456;23;20179;-87
2022/04/03 00:56:02;;;;;;;22.35;19.20;;;2.00;99.90;;;;;;6189524;23;20168;-87
2022/04/03 00:58:30;;;;;;;21.10;18.80;;;2.10;99.90;;;;;;6209004;23;20183;-90
2022/04/03 01:00:59;;;;;;;24.40;20.05;;;2.10;99.90;;;;;;6202827;23;20218;-88
2022/04/03 01:03:26;;;;;;;22.75;19.30;;;2.10;99.90;;;;;;6201301;23;20194;-87
2022/04/03 01:05:53;;;;;;;24.40;20.20;;;2.10;99.90;;;;;;6198699;23;20175;-87
2022/04/03 01:08:20;;;;;;;24.50;19.30;;;2.10;99.90;;;;;;6189374;23;20191;-87
2022/04/03 01:10:46;;;;;;;21.42;17.52;;;2.10;99.90;;;;;;6187163;23;20657;-86
2022/04/03 01:13:13;;;;;;;25.45;19.98;;;2.10;99.90;;;;;;6187040;23;20176;-86
2022/04/03 01:15:40;;;;;;;21.52;19.38;;;2.10;99.90;;;;;;6186041;23;20167;-87
2022/04/03 01:18:08;;;;;;;21.15;18.83;;;2.10;99.90;;;;;;6186522;23;20199;-86
2022/04/03 01:20:36;;;;;;;24.30;18.02;;;2.10;99.90;;;;;;6208262;23;20205;-87
2022/04/03 01:23:03;;;;;;;25.35;17.75;;;2.10;99.90;;;;;;6210545;23;20218;-87
2022/04/03 01:25:31;;;;;;;20.98;18.42;;;2.10;99.90;;;;;;6190384;23;20633;-86
2022/04/03 01:27:58;;;;;;;21.10;17.67;;;2.10;99.90;;;;;;6189237;23;20199;-86
2022/04/03 01:30:25;;;;;;;22.48;19.10;;;2.10;99.90;;;;;;6188670;23;20179;-85
2022/04/03 01:32:52;;;;;;;25.70;19.52;;;2.10;99.90;;;;;;6189051;23;20204;-86
2022/04/03 01:35:18;;;;;;;21.27;18.95;;;2.10;99.90;;;;;;6192548;23;20178;-85
2022/04/03 01:37:45;;;;;;;21.42;18.17;;;2.10;99.90;;;;;;6209692;23;20194;-85
2022/04/03 01:40:13;;;;;;;22.63;18.88;;;2.10;99.90;;;;;;6209611;23;20718;-87
2022/04/03 01:42:41;;;;;;;25.17;19.13;;;2.10;99.90;;;;;;6198934;23;20175;-86
2022/04/03 01:45:08;;;;;;;18.83;16.95;;;2.10;99.90;;;;;;6213367;23;20178;-88
2022/04/03 01:47:35;;;;;;;20.33;17.30;;;2.10;99.90;;;;;;6201710;23;20180;-86
2022/04/03 01:50:02;;;;;;;24.80;17.77;;;2.10;99.90;;;;;;6191143;23;20206;-86
2022/04/03 01:52:29;;;;;;;19.48;16.05;;;2.10;99.90;;;;;;6190798;23;20175;-86
2022/04/03 01:54:56;;;;;;;20.77;16.92;;;2.10;99.90;;;;;;6189488;23;20175;-86
2022/04/03 01:57:22;;;;;;;20.13;18.02;;;2.10;99.90;;;;;;6190366;23;20194;-86
2022/04/03 01:59:50;;;;;;;19.58;16.95;;;2.10;99.90;;;;;;6188169;23;20194;-86
2022/04/03 02:02:17;;;;;;;20.02;15.95;;;2.10;99.90;;;;;;6191046;23;20190;-87
2022/04/03 02:04:45;;;;;;;20.35;17.40;;;2.10;99.90;;;;;;6203574;23;20147;-87
2022/04/03 02:07:12;;;;;;;20.25;16.98;;;2.10;99.90;;;;;;6194024;23;20230;-86
2022/04/03 02:09:39;;;;;;;21.75;18.15;;;2.10;99.90;;;;;;6187510;23;20174;-86
2022/04/03 02:12:06;;;;;;;20.55;16.88;;;2.20;99.90;;;;;;6189863;23;20278;-86
2022/04/03 02:14:33;;;;;;;21.45;16.63;;;2.20;99.90;;;;;;6190730;23;20182;-86
2022/04/03 02:17:01;;;;;;;19.48;15.93;;;2.20;99.90;;;;;;6188093;23;20719;-86
2022/04/03 02:19:28;;;;;;;19.33;15.20;;;2.30;99.90;;;;;;6188174;23;20177;-86
2022/04/03 02:21:54;;;;;;;21.75;16.45;;;2.30;99.90;;;;;;6187638;23;20218;-86
2022/04/03 02:24:21;;;;;;;18.08;15.32;;;2.30;99.90;;;;;;6193681;23;20176;-86
2022/04/03 02:26:47;;;;;;;19.13;15.48;;;2.30;99.90;;;;;;6190160;23;20201;-86
2022/04/03 02:29:14;;;;;;;20.45;16.35;;;2.30;99.90;;;;;;6191452;23;20181;-86
2022/04/03 02:31:41;;;;;;;19.83;15.80;;;2.30;99.90;;;;;;6205169;23;20175;-86
2022/04/03 02:34:09;;;;;;;20.30;16.58;;;2.30;99.90;;;;;;6185998;23;20201;-86
2022/04/03 02:36:36;;;;;;;20.23;15.35;;;2.30;99.90;;;;;;6186272;23;20552;-86
2022/04/03 02:39:03;;;;;;;19.23;16.10;;;2.30;99.90;;;;;;6186197;23;20653;-86
2022/04/03 02:41:30;;;;;;;21.80;16.50;;;2.30;99.90;;;;;;6186802;23;20240;-86
2022/04/03 02:43:57;;;;;;;17.63;15.80;;;2.30;99.90;;;;;;6186676;23;20558;-86
2022/04/03 02:46:23;;;;;;;23.58;17.45;;;2.20;99.90;;;;;;6189775;23;20204;-87
2022/04/03 02:48:50;;;;;;;19.25;16.50;;;2.20;99.90;;;;;;6193091;23;20180;-86
2022/04/03 02:51:19;;;;;;;18.42;15.15;;;2.20;99.90;;;;;;6200134;23;20163;-87
2022/04/03 02:53:45;;;;;;;23.55;17.30;;;2.20;99.90;;;;;;6211149;23;20213;-86
2022/04/03 02:56:12;;;;;;;19.75;16.95;;;2.20;99.90;;;;;;6189474;23;20179;-86
2022/04/03 02:58:40;;;;;;;18.73;15.85;;;2.20;99.90;;;;;;6195052;23;20201;-87
2022/04/03 03:01:07;;;;;;;19.83;16.20;;;2.20;99.90;;;;;;6192588;23;20228;-88
2022/04/03 03:03:33;;;;;;;18.20;16.30;;;2.20;99.90;;;;;;6200359;23;20180;-86
2022/04/03 03:06:01;;;;;;;23.20;16.63;;;2.20;99.90;;;;;;6191441;23;20181;-86
2022/04/03 03:08:29;;;;;;;20.42;18.08;;;2.20;99.90;;;;;;6188505;23;20203;-86
2022/04/03 03:10:55;;;;;;;23.77;15.65;;;2.20;99.90;;;;;;6187809;23;20195;-86
2022/04/03 03:13:22;;;;;;;23.48;17.98;;;2.20;99.90;;;;;;6189156;23;20177;-87
2022/04/03 03:15:49;;;;;;;19.85;16.70;;;2.20;99.90;;;;;;6187238;23;20174;-87
2022/04/03 03:18:15;;;;;;;19.65;16.42;;;2.20;99.90;;;;;;6186523;23;20195;-86
2022/04/03 03:20:42;;;;;;;18.23;15.60;;;2.20;99.90;;;;;;6187243;23;20210;-86
2022/04/03 03:23:09;;;;;;;18.38;16.40;;;2.10;99.90;;;;;;6186309;23;20182;-86
2022/04/03 03:25:37;;;;;;;18.95;15.75;;;2.10;99.90;;;;;;6195861;23;20181;-86
2022/04/03 03:28:04;;;;;;;20.98;15.82;;;2.10;99.90;;;;;;6192552;23;20206;-87
2022/04/03 03:30:31;;;;;;;24.42;19.75;;;2.10;99.90;;;;;;6190530;23;20174;-86
2022/04/03 03:32:57;;;;;;;21.38;16.70;;;2.10;99.90;;;;;;6186230;23;20183;-86
2022/04/03 03:35:24;;;;;;;17.83;15.93;;;2.10;99.90;;;;;;6186221;23;20184;-86
2022/04/03 03:37:51;;;;;;;18.83;16.13;;;2.10;99.90;;;;;;6188092;23;20198;-86
2022/04/03 03:40:18;;;;;;;19.95;16.13;;;2.10;99.90;;;;;;6186094;23;20198;-86
2022/04/03 03:42:46;;;;;;;19.88;16.50;;;2.20;99.90;;;;;;6186048;23;20180;-86
2022/04/03 03:45:15;;;;;;;19.55;16.20;;;2.10;99.90;;;;;;6186805;23;20176;-86
2022/04/03 03:47:44;;;;;;;19.10;16.20;;;2.10;99.90;;;;;;6186168;23;20199;-86
2022/04/03 03:50:11;;;;;;;20.67;16.92;;;2.20;99.90;;;;;;6185941;23;20189;-86
2022/04/03 03:52:37;;;;;;;21.05;15.38;;;2.20;99.90;;;;;;6187931;23;20179;-87
2022/04/03 03:55:05;;;;;;;18.83;15.27;;;2.20;99.90;;;;;;6187028;23;20168;-86
2022/04/03 03:57:32;;;;;;;17.08;15.35;;;2.20;99.90;;;;;;6210418;23;20179;-88
2022/04/03 04:00:00;;;;;;;20.35;16.90;;;2.20;99.90;;;;;;6209495;23;20169;-88
2022/04/03 04:02:26;;;;;;;22.17;16.23;;;2.20;99.90;;;;;;6207902;23;20202;-86
2022/04/03 04:04:53;;;;;;;19.48;16.23;;;2.20;99.90;;;;;;6210077;23;20175;-87
2022/04/03 04:07:20;;;;;;;20.13;16.88;;;2.20;99.90;;;;;;6209903;23;20206;-87
2022/04/03 04:09:47;;;;;;;19.38;16.35;;;2.20;99.90;;;;;;6190997;23;20175;-86
2022/04/03 04:12:13;;;;;;;15.98;14.27;;;2.30;99.90;;;;;;6187528;23;20627;-86
2022/04/03 04:14:40;;;;;;;23.40;16.38;;;2.20;99.90;;;;;;6189956;23;20180;-86
2022/04/03 04:17:09;;;;;;;17.83;14.68;;;2.30;99.90;;;;;;6188661;23;20197;-86
2022/04/03 04:19:36;;;;;;;17.77;15.27;;;2.20;99.90;;;;;;6188235;23;20292;-86
2022/04/03 04:22:03;;;;;;;20.25;15.73;;;2.20;99.90;;;;;;6187013;23;20191;-86
2022/04/03 04:24:30;;;;;;;17.63;15.43;;;2.20;99.90;;;;;;6192687;23;20184;-87
2022/04/03 04:26:58;;;;;;;18.30;15.68;;;2.20;99.90;;;;;;6202138;23;20258;-87
2022/04/03 04:29:24;;;;;;;18.33;14.75;;;2.20;99.90;;;;;;6201673;23;20213;-86
2022/04/03 04:31:51;;;;;;;19.58;15.93;;;2.20;99.90;;;;;;6209611;23;20169;-89
2022/04/03 04:34:19;;;;;;;16.30;14.55;;;2.20;99.90;;;;;;6188364;23;20188;-86
2022/04/03 04:36:46;;;;;;;15.57;13.85;;;2.20;99.90;;;;;;6187726;23;20206;-86
2022/04/03 04:39:13;;;;;;;17.85;15.70;;;2.30;99.90;;;;;;6187611;23;20181;-86
2022/04/03 04:41:40;;;;;;;17.15;14.30;;;2.20;99.90;;;;;;6195257;23;20175;-88
2022/04/03 04:44:07;;;;;;;17.77;14.90;;;2.20;99.90;;;;;;6188641;23;20259;-86
2022/04/03 04:46:34;;;;;;;15.50;13.48;;;2.30;99.90;;;;;;6205581;23;20160;-89
2022/04/03 04:49:01;;;;;;;16.63;14.73;;;2.20;99.90;;;;;;6205311;23;20505;-86
2022/04/03 04:51:29;;;;;;;17.30;14.05;;;2.20;99.90;;;;;;6190975;23;20202;-86
2022/04/03 04:53:56;;;;;;;17.25;14.43;;;2.20;99.90;;;;;;6192530;23;20184;-86
2022/04/03 04:56:22;;;;;;;15.60;13.75;;;2.30;99.90;;;;;;6196724;23;20179;-85
2022/04/03 04:58:49;;;;;;;20.70;14.52;;;2.20;99.90;;;;;;6193672;23;20208;-86
2022/04/03 05:01:16;;;;;;;17.50;13.27;;;2.20;99.90;;;;;;6196342;23;20191;-85
2022/04/03 05:03:43;;;;;;;15.50;13.23;;;2.30;99.90;;;;;;6197991;23;20244;-87
2022/04/03 05:06:12;;;;;;;16.63;14.20;;;2.20;99.90;;;;;;6190768;23;20178;-86
2022/04/03 05:08:40;;;;;;;19.38;13.95;;;2.20;99.90;;;;;;6189803;23;20277;-86
2022/04/03 05:11:07;;;;;;;17.40;13.77;;;2.20;99.90;;;;;;6190033;23;20182;-86
2022/04/03 05:13:34;;;;;;;16.08;13.57;;;2.20;99.90;;;;;;6189449;23;20248;-85
2022/04/03 05:16:01;;;;;;;16.30;14.60;;;2.20;99.90;;;;;;6194227;23;20179;-85
2022/04/03 05:18:28;;;;;;;17.58;14.93;;;2.20;99.90;;;;;;6192065;23;20661;-85
2022/04/03 05:20:55;;;;;;;16.98;14.65;;;2.20;99.90;;;;;;6189197;23;20674;-86
2022/04/03 05:23:22;;;;;;;17.40;13.68;;;2.30;99.90;;;;;;6188824;23;20485;-85
2022/04/03 05:25:50;;;;;;;17.43;15.30;;;2.30;99.90;;;;;;6189205;23;20183;-86
2022/04/03 05:28:17;;;;;;;15.30;13.57;;;2.30;99.90;;;;;;6190521;23;20458;-85
2022/04/03 05:30:43;;;;;;;17.30;14.57;;;2.30;99.90;;;;;;6189932;23;20596;-86
2022/04/03 05:33:10;;;;;;;17.33;14.43;;;2.30;99.90;;;;;;6188371;23;20176;-86
2022/04/03 05:35:37;;;;;;;17.30;13.60;;;2.30;99.90;;;;;;6190866;23;20698;-86
2022/04/03 05:38:04;;;;;;;17.33;14.10;;;2.30;99.90;;;;;;6188399;23;20191;-85
2022/04/03 05:40:31;;;;;;;17.90;13.48;;;2.40;99.90;;;;;;6188743;23;20649;-85
2022/04/03 05:42:59;;;;;;;16.42;13.23;;;2.40;99.90;;;;;;6188845;23;20241;-85
2022/04/03 05:45:26;;;;;;;15.18;13.30;;;2.40;99.90;;;;;;6189634;23;20258;-86
2022/04/03 05:47:53;;;;;;;15.15;12.88;;;2.40;99.90;;;;;;6188990;23;20191;-85
2022/04/03 05:50:20;;;;;;;14.57;13.05;;;2.50;99.90;;;;;;6194396;23;20631;-85
2022/04/03 05:52:48;;;;;;;16.48;12.45;;;2.50;99.90;;;;;;6189357;23;20180;-85
2022/04/03 05:55:16;;;;;;;16.63;13.05;;;2.60;99.90;;;;;;6189837;23;20175;-85
2022/04/03 05:57:44;;;;;;;15.50;13.00;;;2.60;99.90;;;;;;6189794;23;20202;-85
2022/04/03 06:00:14;;;;;;;14.35;12.93;;;2.70;99.90;;;;;;6190147;23;20189;-85
2022/04/03 06:02:47;;;;;;;13.80;12.40;;;2.80;99.90;;;;;;6189324;23;20207;-86
2022/04/03 06:05:15;;;;;;;18.33;13.48;;;2.90;99.90;;;;;;6188531;23;20491;-87
2022/04/03 06:07:42;;;;;;;13.50;12.13;;;3.00;99.90;;;;;;6190705;23;20211;-86
2022/04/03 06:10:09;;;;;;;11.88;10.70;;;3.10;99.90;;;;;;6195297;23;20230;-85
2022/04/03 06:12:36;;;;;;;11.98;10.75;;;3.10;99.90;;;;;;6189804;23;20187;-86
2022/04/03 06:15:04;;;;;;;11.48;10.27;;;3.10;99.90;;;;;;6200274;23;20176;-86
2022/04/03 06:17:32;;;;;;;14.43;11.83;;;3.20;99.90;;;;;;6213178;23;20203;-89
2022/04/03 06:19:58;;;;;;;15.73;12.85;;;3.30;99.90;;;;;;6200656;23;20822;-85
2022/04/03 06:22:25;;;;;;;12.23;10.95;;;3.40;99.90;;;;;;6209781;23;20186;-87
2022/04/03 06:24:53;;;;;;;12.67;11.37;;;3.60;99.90;;;;;;6199012;23;20205;-85
2022/04/03 06:27:20;;;;;;;12.73;11.13;;;3.70;99.90;;;;;;6193368;23;20428;-86
2022/04/03 06:29:47;;;;;;;13.60;10.75;;;3.80;99.90;;;;;;6199885;23;20198;-86
2022/04/03 06:32:13;;;;;;;13.17;11.50;;;4.00;99.90;;;;;;6209650;23;20160;-89
2022/04/03 06:34:41;;;;;;;11.57;10.27;;;4.10;99.90;;;;;;6204703;23;20428;-86
2022/04/03 06:37:08;;;;;;;11.88;10.60;;;4.30;99.90;;;;;;6191553;23;20428;-86
2022/04/03 06:39:35;;;;;;;12.10;10.87;;;4.40;99.90;;;;;;6193834;23;20181;-86
2022/04/03 06:42:04;;;;;;;11.97;10.20;;;4.60;99.90;;;;;;6213211;23;20432;-89
2022/04/03 06:44:31;;;;;;;9.77;8.77;;;4.70;99.90;;;;;;6199515;23;20415;-86
2022/04/03 06:46:58;;;;;;;10.10;9.10;;;4.90;99.90;;;;;;6192237;23;20816;-86
2022/04/03 06:49:24;;;;;;;9.77;8.87;;;5.00;99.90;;;;;;6190473;23;20748;-86
2022/04/03 06:51:52;;;;;;;9.93;9.03;;;5.00;99.90;;;;;;6189301;23;20789;-87
2022/04/03 06:54:19;;;;;;;10.20;8.83;;;5.00;99.90;;;;;;6186058;23;20420;-87
2022/04/03 06:56:46;;;;;;;9.90;8.90;;;4.90;99.90;;;;;;6189445;23;20427;-86
2022/04/03 06:59:13;;;;;;;10.50;8.83;;;5.00;99.90;;;;;;6207555;23;20444;-86
2022/04/03 07:01:39;;;;;;;10.47;8.33;;;5.20;99.90;;;;;;6206961;23;20509;-86
2022/04/03 07:04:06;;;;;;;10.13;8.97;;;5.40;99.90;;;;;;6197135;23;20405;-85
2022/04/03 07:06:33;;;;;;;9.87;8.80;;;5.50;99.90;;;;;;6193918;23;20413;-86
2022/04/03 07:09:01;;;;;;;8.70;7.90;;;5.70;99.90;;;;;;6189094;23;20957;-88
2022/04/03 07:11:28;;;;;;;9.47;8.00;;;5.80;99.90;;;;;;6182969;23;20413;-88
2022/04/03 07:13:54;;;;;;;8.47;7.50;;;5.90;99.90;;;;;;6191628;23;20414;-87
2022/04/03 07:16:21;;;;;;;8.20;7.40;;;6.00;99.90;;;;;;6202328;23;20405;-87
2022/04/03 07:18:49;;;;;;;10.20;7.50;;;6.20;99.90;;;;;;6190789;23;20758;-87
2022/04/03 07:21:16;;;;;;;8.60;7.70;;;6.20;99.20;;;;;;6191244;23;20435;-87
2022/04/03 07:23:43;;;;;;;8.47;7.40;;;6.60;99.60;;;;;;6185081;23;20441;-87
2022/04/03 07:26:11;;;;;;;9.10;8.20;;;7.40;98.70;;;;;;6185999;23;20417;-87
2022/04/03 07:28:38;;;;;;;9.30;7.47;;;7.50;96.50;;;;;;6188401;23;20472;-86
2022/04/03 07:31:05;;;;;;;9.30;8.20;;;7.70;96.30;;;;;;6212132;23;20390;-88
2022/04/03 07:33:32;;;;;;;8.93;8.03;;;7.70;95.60;;;;;;6209548;23;20406;-87
2022/04/03 07:35:58;;;;;;;9.10;7.60;;;8.00;94.90;;;;;;6190129;23;20883;-87
2022/04/03 07:38:26;;;;;;;8.30;7.50;;;7.90;93.40;;;;;;6185719;23;20433;-87
2022/04/03 07:40:53;;;;;;;7.30;6.60;;;7.90;93.30;;;;;;6184778;23;20414;-88
2022/04/03 07:43:22;;;;;;;7.90;6.73;;;7.70;93.40;;;;;;6185211;23;20845;-87
2022/04/03 07:45:50;;;;;;;7.57;6.87;;;7.40;93.30;;;;;;6185023;23;20417;-88
2022/04/03 07:48:17;;;;;;;8.27;7.47;;;7.00;93.30;;;;;;6185717;23;20421;-87
2022/04/03 07:50:44;;;;;;;8.90;8.10;;;6.90;94.10;;;;;;6186328;23;20463;-87
2022/04/03 07:53:11;;;;;;;8.53;7.73;;;6.80;94.90;;;;;;6185965;23;20406;-87
2022/04/03 07:55:38;;;;;;;7.83;7.00;;;6.80;95.60;;;;;;6187134;23;20816;-87
2022/04/03 07:58:06;;;;;;;8.67;7.87;;;6.90;95.60;;;;;;6192813;23;20414;-88
2022/04/03 08:00:34;;;;;;;11.83;8.30;;;6.80;95.10;;;;;;6199415;23;20398;-87
2022/04/03 08:03:01;;;;;;;9.30;8.20;;;6.90;95.10;;;;;;6188890;23;20438;-87
2022/04/03 08:05:28;;;;;;;9.03;7.50;;;6.90;95.60;;;;;;6195909;23;20425;-88
2022/04/03 08:07:55;;;;;;;8.20;7.50;;;7.00;95.10;;;;;;6197966;23;20412;-87
2022/04/03 08:10:23;;;;;;;9.20;8.30;;;7.20;95.00;;;;;;6208263;23;20470;-85
2022/04/03 08:12:51;;;;;;;9.27;7.60;;;7.30;94.80;;;;;;6207482;23;20424;-87
2022/04/03 08:15:19;;;;;;;7.47;6.77;;;7.50;94.90;;;;;;6188149;23;20742;-87
2022/04/03 08:17:47;;;;;;;7.90;7.00;;;7.20;93.50;;;;;;6206976;23;20409;-86
2022/04/03 08:20:16;;;;;;;8.27;7.47;;;7.00;94.30;;;;;;6193364;23;20422;-87
2022/04/03 08:22:44;;;;;;;6.37;5.80;;;7.10;94.80;;;;;;6187180;23;20450;-87
2022/04/03 08:25:13;;;;;;;7.50;6.80;;;7.10;93.80;;;;;;6210037;23;20409;-88
2022/04/03 08:27:46;;;;;;;8.07;7.30;;;6.70;93.20;;;;;;6202312;23;20418;-88
2022/04/03 08:30:19;;;;;;;14.53;7.30;;;6.80;94.30;;;;;;6190160;23;20441;-86
2022/04/03 08:32:47;;;;;;;8.87;7.43;;;7.20;94.40;;;;;;6188129;23;20392;-89
2022/04/03 08:35:15;;;;;;;8.03;7.27;;;7.80;93.80;;;;;;6187101;23;20416;-88
2022/04/03 08:37:45;;;;;;;6.87;6.17;;;8.30;92.70;;;;;;6187077;23;20465;-87
2022/04/03 08:40:13;;;;;;;7.10;6.50;;;10.00;90.50;;;;;;6187900;23;20429;-86
2022/04/03 08:42:41;;;;;;;8.20;6.10;;;12.00;82.80;;;;;;6212048;23;20440;-86
2022/04/03 08:45:11;;;;;;;5.70;5.20;;;14.00;77.60;;;;;;6199922;23;20413;-87
2022/04/03 08:47:43;;;;;;;6.57;5.97;;;15.60;68.30;;;;;;6186930;23;20442;-88
2022/04/03 08:50:12;;;;;;;5.80;5.30;;;16.10;60.00;;;;;;6185590;23;20436;-88
2022/04/03 08:52:40;;;;;;;5.63;5.23;;;16.10;56.30;;;;;;6183562;23;20472;-88
2022/04/03 08:55:07;;;;;;;7.87;7.17;;;14.70;54.90;;;;;;6185311;23;20411;-88
2022/04/03 08:57:34;;;;;;;7.40;5.93;;;12.80;58.40;;;;;;6185985;23;20406;-88
2022/04/03 09:00:04;;;;;;;5.80;5.40;;;12.10;59.40;;;;;;6186059;23;20464;-88
2022/04/03 09:02:31;;;;;;;6.33;5.73;;;11.20;63.40;;;;;;6187740;23;20455;-87
2022/04/03 09:04:58;;;;;;;5.97;4.93;;;10.10;66.30;;;;;;6191427;23;20405;-87
2022/04/03 09:07:26;;;;;;;6.20;5.60;;;9.30;69.30;;;;;;6208474;23;20412;-88
2022/04/03 09:09:57;;;;;;;6.50;5.80;;;8.90;73.30;;;;;;6195038;23;20438;-88
2022/04/03 09:12:24;;;;;;;5.60;5.03;;;8.60;75.60;;;;;;6188864;23;20402;-89
2022/04/03 09:14:53;;;;;;;5.90;5.27;;;8.10;74.60;;;;;;6187665;23;20406;-88
2022/04/03 09:17:33;;;;;;;5.90;5.30;;;7.70;74.70;;;;;;6186458;23;20444;-88
2022/04/03 09:20:05;;;;;;;5.90;5.43;;;7.50;76.50;;;;;;6185092;23;20429;-88
2022/04/03 09:22:35;;;;;;;5.23;4.73;;;7.20;78.40;;;;;;6184633;23;20583;-88
2022/04/03 09:25:03;;;;;;;5.97;5.47;;;7.10;80.10;;;;;;6188426;23;20432;-87
2022/04/03 09:27:33;;;;;;;6.23;5.50;;;7.00;82.50;;;;;;6190793;23;20410;-87
2022/04/03 09:30:07;;;;;;;8.20;5.20;;;7.00;82.40;;;;;;6186057;23;20967;-88
2022/04/03 09:32:34;;;;;;;5.77;5.20;;;6.90;82.50;;;;;;6187517;23;20417;-88
2022/04/03 09:35:01;;;;;;;6.40;5.80;;;6.80;83.90;;;;;;6186038;23;20402;-87
2022/04/03 09:37:28;;;;;;;6.20;5.53;;;6.70;83.90;;;;;;6186789;23;20414;-87
2022/04/03 09:39:56;;;;;;;6.40;5.80;;;6.60;85.60;;;;;;6199222;23;20429;-88
2022/04/03 09:42:23;;;;;;;7.87;6.07;;;6.60;87.10;;;;;;6201231;23;20434;-87
2022/04/03 09:44:50;;;;;;;8.80;6.13;;;6.70;87.90;;;;;;6194394;23;20405;-87
2022/04/03 09:47:20;;;;;;;9.33;6.67;;;6.70;87.40;;;;;;6191662;23;20402;-86
2022/04/03 09:49:52;;;;;;;6.60;6.00;;;6.80;87.90;;;;;;6188721;23;20542;-86
2022/04/03 09:52:37;;;;;;;7.13;5.60;;;6.80;86.50;;;;;;6189647;23;20437;-87
2022/04/03 09:55:15;;;;;;;6.60;5.80;;;6.30;84.20;;;;;;6191582;23;20405;-88
2022/04/03 09:57:41;;;;;;;5.97;5.47;;;5.90;86.20;;;;;;6190504;23;20394;-86
2022/04/03 10:00:09;;;;;;;8.30;6.70;;;5.70;87.30;;;;;;6207319;23;20420;-86
2022/04/03 10:02:36;;;;;;;7.70;5.50;;;5.80;88.70;;;;;;6212186;23;20437;-86
2022/04/03 10:05:03;;;;;;;6.67;5.70;;;5.80;87.90;;;;;;6214176;23;20414;-86
2022/04/03 10:07:31;;;;;;;6.93;5.93;;;5.50;88.50;;;;;;6213373;23;20385;-85
2022/04/03 10:09:59;;;;;;;5.90;5.40;;;5.20;90.20;;;;;;6213431;23;20496;-87
2022/04/03 10:12:27;;;;;;;6.83;5.30;;;5.40;90.20;;;;;;6210022;23;20414;-86
2022/04/03 10:14:54;;;;;;;5.03;4.50;;;5.30;88.90;;;;;;6213303;23;20420;-86
2022/04/03 10:17:21;;;;;;;5.23;4.50;;;5.40;90.00;;;;;;6208994;23;20444;-88
2022/04/03 10:19:51;;;;;;;5.93;5.30;;;5.60;89.20;;;;;;6209212;23;20417;-86
2022/04/03 10:22:22;;;;;;;5.73;5.30;;;5.90;87.20;;;;;;6212967;23;20392;-86
2022/04/03 10:24:53;;;;;;;5.17;4.47;;;6.00;84.60;;;;;;6210264;23;20411;-87
2022/04/03 10:27:23;;;;;;;8.20;5.17;;;6.20;84.90;;;;;;6196815;23;20419;-86
2022/04/03 10:29:56;;;;;;;4.83;4.20;;;6.50;85.90;;;;;;6193191;23;20426;-86
2022/04/03 10:32:27;;;;;;;6.83;6.13;;;6.60;84.50;;;;;;6192470;23;20477;-86
2022/04/03 10:34:57;;;;;;;6.50;4.77;;;6.70;84.90;;;;;;6192928;23;20409;-87
2022/04/03 10:37:32;;;;;;;6.57;4.80;;;6.70;83.00;;;;;;6193159;23;20401;-87
2022/04/03 10:40:05;;;;;;;4.90;4.40;;;6.10;83.80;;;;;;6193411;23;20416;-86
2022/04/03 10:42:32;;;;;;;5.33;4.83;;;5.60;84.50;;;;;;6191363;23;20432;-87
2022/04/03 10:45:27;;;;;;;5.83;4.97;;;5.60;87.10;;;;;;6192090;23;20415;-87
2022/04/03 10:48:27;;;;;;;5.27;4.77;;;5.20;89.10;;;;;;6192461;23;20382;-86
2022/04/03 10:51:05;;;;;;;5.57;5.00;;;5.10;90.70;;;;;;6189495;23;20453;-87
2022/04/03 10:53:33;;;;;;;8.93;5.83;;;4.90;91.10;;;;;;6190155;23;20401;-88
2022/04/03 10:56:07;;;;;;;5.53;4.93;;;4.80;90.80;;;;;;6209213;23;20385;-88
2022/04/03 10:58:48;;;;;;;5.60;5.10;;;4.80;89.80;;;;;;6213632;23;20421;-89
2022/04/03 11:01:27;;;;;;;6.30;5.67;;;5.20;89.80;;;;;;6206546;23;20414;-89
2022/04/03 11:04:02;;;;;;;4.97;4.37;;;5.50;87.90;;;;;;6195180;23;20476;-88
2022/04/03 11:06:36;;;;;;;6.50;3.90;;;5.90;86.60;;;;;;6196720;23;20419;-90
2022/04/03 11:09:08;;;;;;;4.37;3.83;;;6.50;88.80;;;;;;6192392;23;20433;-88
2022/04/03 11:11:38;;;;;;;3.67;3.30;;;7.20;86.40;;;;;;6190348;23;20461;-90
2022/04/03 11:14:07;;;;;;;5.80;4.40;;;7.40;84.00;;;;;;6194658;23;20395;-88
2022/04/03 11:16:54;;;;;;;6.27;4.13;;;7.90;83.80;;;;;;6198191;23;20460;-89
2022/04/03 11:19:40;;;;;;;4.40;4.00;;;8.30;78.60;;;;;;6199956;23;20422;-89
2022/04/03 11:22:10;;;;;;;8.20;4.20;;;8.90;77.60;;;;;;6191400;23;20394;-89
2022/04/03 11:24:38;;;;;;;3.97;3.67;;;9.30;75.30;;;;;;6195361;23;20438;-88
2022/04/03 11:27:06;;;;;;;4.50;3.67;;;10.30;70.90;;;;;;6200552;23;20416;-89
2022/04/03 11:29:34;;;;;;;4.67;4.27;;;12.20;68.40;;;;;;6196387;23;20422;-89
2022/04/03 11:32:06;;;;;;;6.20;4.47;;;12.90;62.10;;;;;;6198577;23;20401;-89
2022/04/03 11:34:33;;;;;;;4.07;3.70;;;12.10;61.50;;;;;;6195769;23;20391;-90
2022/04/03 11:37:02;;;;;;;6.57;4.80;;;10.60;59.10;;;;;;6191579;23;20507;-89
2022/04/03 11:39:36;;;;;;;4.77;3.83;;;10.40;61.50;;;;;;6191944;23;20434;-88
2022/04/03 11:42:08;;;;;;;4.50;4.10;;;10.50;62.40;;;;;;6190004;23;20424;-88
2022/04/03 11:44:36;;;;;;;4.80;4.40;;;11.10;62.80;;;;;;6189470;23;20438;-88
2022/04/03 11:47:06;;;;;;;4.23;3.93;;;11.00;61.70;;;;;;6190471;23;20430;-88
2022/04/03 11:49:36;;;;;;;5.03;3.77;;;10.80;60.90;;;;;;6189851;23;20929;-88
2022/04/03 11:52:09;;;;;;;7.10;4.33;;;10.60;62.70;;;;;;6189995;23;21133;-88
2022/04/03 11:54:36;;;;;;;8.80;4.70;;;10.10;63.80;;;;;;6190783;23;20414;-89
2022/04/03 11:57:05;;;;;;;4.50;4.10;;;9.90;62.80;;;;;;6203538;23;20396;-89
2022/04/03 11:59:34;;;;;;;4.40;4.00;;;9.80;62.60;;;;;;6213901;23;20437;-90
2022/04/03 12:02:11;;;;;;;4.57;4.17;;;9.10;64.70;;;;;;6212271;23;20433;-89
2022/04/03 12:04:40;;;;;;;4.70;4.03;;;9.00;65.80;;;;;;6201142;23;20457;-89
2022/04/03 12:07:10;;;;;;;6.47;4.70;;;8.60;65.70;;;;;;6193409;23;20425;-90
2022/04/03 12:09:37;;;;;;;5.30;4.37;;;8.60;67.30;;;;;;6193296;23;20445;-89
2022/04/03 12:12:04;;;;;;;4.90;3.77;;;8.50;66.80;;;;;;6193441;23;20409;-89
2022/04/03 12:14:33;;;;;;;4.23;3.83;;;8.40;66.20;;;;;;6192264;23;20405;-88
2022/04/03 12:17:01;;;;;;;4.63;3.70;;;8.60;67.90;;;;;;6189546;23;20458;-88
2022/04/03 12:19:30;;;;;;;4.60;3.80;;;8.70;66.60;;;;;;6192095;23;20436;-89
2022/04/03 12:22:00;;;;;;;6.10;4.10;;;8.90;65.90;;;;;;6195521;23;20800;-89
2022/04/03 12:24:28;;;;;;;4.67;3.70;;;8.70;65.60;;;;;;6195895;23;20477;-89
2022/04/03 12:26:59;;;;;;;5.40;3.63;;;8.60;64.90;;;;;;6196079;23;20414;-88
2022/04/03 12:29:27;;;;;;;5.03;3.60;;;8.30;63.50;;;;;;6208134;23;20417;-89
2022/04/03 12:32:00;;;;;;;4.20;3.80;;;8.20;65.50;;;;;;6206254;23;20402;-88
2022/04/03 12:34:29;;;;;;;4.90;4.27;;;8.00;66.30;;;;;;6188128;23;20406;-88
2022/04/03 12:36:58;;;;;;;4.63;4.23;;;7.90;65.80;;;;;;6195238;23;20413;-89
2022/04/03 12:39:42;;;;;;;7.20;5.70;;;7.70;67.70;;;;;;6210034;23;20406;-88
2022/04/03 12:42:21;;;;;;;4.00;3.60;;;7.60;65.80;;;;;;6204562;23;20389;-89
2022/04/03 12:44:56;;;;;;;5.23;4.57;;;7.00;65.60;;;;;;6190248;23;20449;-89
2022/04/03 12:47:30;;;;;;;4.63;4.23;;;6.70;69.10;;;;;;6190817;23;20427;-88
2022/04/03 12:50:25;;;;;;;4.13;3.77;;;6.60;69.80;;;;;;6194257;23;20955;-88
2022/04/03 12:52:54;;;;;;;4.90;3.87;;;6.70;71.20;;;;;;6134905;23;20417;-90